Ana Sayfa
METAR-TAF:

METAR-TAF

Havaalanları :

North Kingstown, Rhode Island, Amerika Birleşik Devletleri

Enlem: 41-36N, Boylam: 071-25W, yükseklik: 6 m

Güncel hava durumu gözlemi

Rapor saat 02:50 UTC de 3 saat ve 31 dakika önce yapıldı.
Rüzgar güney/güneydoğudan 5 kt
Sıcaklık 20°C
Nem 78%
Basınç 1013 hPa
Görüş mesafesi: 16.1 km
6500 ft yükseklikte parçalı çok bulutlu

METAR: KOQU 240250Z 15005KT 10SM BKN065 20/16 A2991

Saat: 02:21 (06:21 UTC)


TAF: eksik

4.000'den fazla havaalanı için hava durumu gözlemleri ve tahminleri (METAR ve TAF raporları).

Kullanılabilir istasyonlar harita üzerinde sarı ve kırmızı noktalarla gösterilir.

İstasyonun adını görmek için fareyi noktanın üzerinde gezdirin.

Sonrasında hava gözlem ve tahminlerini görmek için tıklayın.

Haritayı değiştirmek için: yaklaştırmak için siyah artı işaretli yeşil düğmeye ve uzaklaştırmak için de eksi işaretli düğmeye hızla tıklayın; bitişik haritalar için yeşil okları kullanın.


METAR-TAF: